sensor_id;sensor_type;location;lat;lon;timestamp;P1;durP1;ratioP1;P2;durP2;ratioP2
70026;SDS011;57506;50.092;15.804;2023-05-07T00:00:55;25.50;;;13.40;;
70026;SDS011;57506;50.092;15.804;2023-05-07T00:03:21;23.50;;;13.95;;
70026;SDS011;57506;50.092;15.804;2023-05-07T00:05:47;27.95;;;13.63;;
70026;SDS011;57506;50.092;15.804;2023-05-07T00:08:13;23.73;;;13.13;;
70026;SDS011;57506;50.092;15.804;2023-05-07T00:10:38;25.10;;;14.32;;
70026;SDS011;57506;50.092;15.804;2023-05-07T00:13:04;25.13;;;13.73;;
70026;SDS011;57506;50.092;15.804;2023-05-07T00:15:30;25.30;;;13.75;;
70026;SDS011;57506;50.092;15.804;2023-05-07T00:17:55;26.13;;;14.10;;
70026;SDS011;57506;50.092;15.804;2023-05-07T00:20:21;24.97;;;13.47;;
70026;SDS011;57506;50.092;15.804;2023-05-07T00:22:46;24.00;;;12.60;;
70026;SDS011;57506;50.092;15.804;2023-05-07T00:25:12;24.77;;;13.50;;
70026;SDS011;57506;50.092;15.804;2023-05-07T00:27:37;25.50;;;11.70;;
70026;SDS011;57506;50.092;15.804;2023-05-07T00:30:03;22.07;;;11.93;;
70026;SDS011;57506;50.092;15.804;2023-05-07T00:32:28;18.92;;;11.05;;
70026;SDS011;57506;50.092;15.804;2023-05-07T00:34:54;19.87;;;11.20;;
70026;SDS011;57506;50.092;15.804;2023-05-07T00:37:20;21.80;;;11.10;;
70026;SDS011;57506;50.092;15.804;2023-05-07T00:39:46;19.50;;;10.23;;
70026;SDS011;57506;50.092;15.804;2023-05-07T00:42:11;19.33;;;10.32;;
70026;SDS011;57506;50.092;15.804;2023-05-07T00:44:36;18.20;;;9.53;;
70026;SDS011;57506;50.092;15.804;2023-05-07T00:47:03;18.20;;;9.73;;
70026;SDS011;57506;50.092;15.804;2023-05-07T00:49:36;17.88;;;9.38;;
70026;SDS011;57506;50.092;15.804;2023-05-07T00:52:06;18.05;;;8.98;;
70026;SDS011;57506;50.092;15.804;2023-05-07T00:54:33;18.75;;;9.35;;
70026;SDS011;57506;50.092;15.804;2023-05-07T00:56:59;17.47;;;9.03;;
70026;SDS011;57506;50.092;15.804;2023-05-07T00:59:27;16.17;;;9.27;;
70026;SDS011;57506;50.092;15.804;2023-05-07T01:01:52;15.38;;;8.70;;
70026;SDS011;57506;50.092;15.804;2023-05-07T01:04:18;16.33;;;8.17;;
70026;SDS011;57506;50.092;15.804;2023-05-07T01:06:44;16.60;;;9.17;;
70026;SDS011;57506;50.092;15.804;2023-05-07T01:09:10;20.85;;;9.30;;
70026;SDS011;57506;50.092;15.804;2023-05-07T01:11:36;15.73;;;8.63;;
70026;SDS011;57506;50.092;15.804;2023-05-07T01:14:03;18.02;;;9.05;;
70026;SDS011;57506;50.092;15.804;2023-05-07T01:16:29;17.77;;;9.90;;
70026;SDS011;57506;50.092;15.804;2023-05-07T01:18:55;15.73;;;8.57;;
70026;SDS011;57506;50.092;15.804;2023-05-07T01:21:22;16.80;;;8.43;;
70026;SDS011;57506;50.092;15.804;2023-05-07T01:23:51;16.83;;;8.50;;
70026;SDS011;57506;50.092;15.804;2023-05-07T01:26:17;17.27;;;8.73;;
70026;SDS011;57506;50.092;15.804;2023-05-07T01:28:44;17.80;;;9.18;;
70026;SDS011;57506;50.092;15.804;2023-05-07T01:31:10;15.55;;;8.70;;
70026;SDS011;57506;50.092;15.804;2023-05-07T01:33:38;16.40;;;8.80;;
70026;SDS011;57506;50.092;15.804;2023-05-07T01:36:07;17.52;;;9.43;;
70026;SDS011;57506;50.092;15.804;2023-05-07T01:38:34;15.50;;;8.88;;
70026;SDS011;57506;50.092;15.804;2023-05-07T01:41:01;17.92;;;9.32;;
70026;SDS011;57506;50.092;15.804;2023-05-07T01:43:28;17.48;;;9.30;;
70026;SDS011;57506;50.092;15.804;2023-05-07T01:45:57;16.13;;;8.57;;
70026;SDS011;57506;50.092;15.804;2023-05-07T01:48:23;16.55;;;8.05;;
70026;SDS011;57506;50.092;15.804;2023-05-07T01:50:49;14.52;;;8.02;;
70026;SDS011;57506;50.092;15.804;2023-05-07T01:53:16;16.80;;;8.55;;
70026;SDS011;57506;50.092;15.804;2023-05-07T01:55:42;15.53;;;8.07;;
70026;SDS011;57506;50.092;15.804;2023-05-07T01:58:07;15.07;;;8.13;;
70026;SDS011;57506;50.092;15.804;2023-05-07T02:00:33;17.23;;;8.60;;
70026;SDS011;57506;50.092;15.804;2023-05-07T02:02:58;16.50;;;8.67;;
70026;SDS011;57506;50.092;15.804;2023-05-07T02:05:24;15.73;;;8.48;;
70026;SDS011;57506;50.092;15.804;2023-05-07T02:07:49;20.20;;;9.00;;
70026;SDS011;57506;50.092;15.804;2023-05-07T02:10:15;15.67;;;7.90;;
70026;SDS011;57506;50.092;15.804;2023-05-07T02:12:40;17.02;;;8.65;;
70026;SDS011;57506;50.092;15.804;2023-05-07T02:15:06;15.90;;;8.00;;
70026;SDS011;57506;50.092;15.804;2023-05-07T02:17:32;15.57;;;8.38;;
70026;SDS011;57506;50.092;15.804;2023-05-07T02:19:58;17.25;;;8.25;;
70026;SDS011;57506;50.092;15.804;2023-05-07T02:22:24;16.73;;;7.83;;
70026;SDS011;57506;50.092;15.804;2023-05-07T02:24:50;15.15;;;7.97;;
70026;SDS011;57506;50.092;15.804;2023-05-07T02:27:16;12.90;;;6.90;;
70026;SDS011;57506;50.092;15.804;2023-05-07T02:29:41;11.85;;;6.80;;
70026;SDS011;57506;50.092;15.804;2023-05-07T02:32:07;13.33;;;7.33;;
70026;SDS011;57506;50.092;15.804;2023-05-07T02:34:32;11.73;;;6.63;;
70026;SDS011;57506;50.092;15.804;2023-05-07T02:36:58;12.80;;;7.00;;
70026;SDS011;57506;50.092;15.804;2023-05-07T02:39:23;12.17;;;6.60;;
70026;SDS011;57506;50.092;15.804;2023-05-07T02:41:49;10.55;;;6.32;;
70026;SDS011;57506;50.092;15.804;2023-05-07T02:44:15;11.63;;;6.53;;
70026;SDS011;57506;50.092;15.804;2023-05-07T02:46:40;11.97;;;6.33;;
70026;SDS011;57506;50.092;15.804;2023-05-07T02:49:06;12.07;;;6.80;;
70026;SDS011;57506;50.092;15.804;2023-05-07T02:51:31;10.30;;;5.80;;
70026;SDS011;57506;50.092;15.804;2023-05-07T02:53:57;11.77;;;6.23;;
70026;SDS011;57506;50.092;15.804;2023-05-07T02:56:22;11.10;;;6.13;;
70026;SDS011;57506;50.092;15.804;2023-05-07T02:58:48;12.73;;;5.97;;
70026;SDS011;57506;50.092;15.804;2023-05-07T03:01:13;11.97;;;6.47;;
70026;SDS011;57506;50.092;15.804;2023-05-07T03:03:39;11.77;;;6.10;;
70026;SDS011;57506;50.092;15.804;2023-05-07T03:06:05;10.80;;;6.27;;
70026;SDS011;57506;50.092;15.804;2023-05-07T03:08:32;12.43;;;6.10;;
70026;SDS011;57506;50.092;15.804;2023-05-07T03:10:57;10.25;;;6.13;;
70026;SDS011;57506;50.092;15.804;2023-05-07T03:13:23;11.15;;;6.05;;
70026;SDS011;57506;50.092;15.804;2023-05-07T03:15:49;11.93;;;6.27;;
70026;SDS011;57506;50.092;15.804;2023-05-07T03:18:14;11.23;;;6.10;;
70026;SDS011;57506;50.092;15.804;2023-05-07T03:20:40;11.05;;;5.85;;
70026;SDS011;57506;50.092;15.804;2023-05-07T03:23:05;9.93;;;5.20;;
70026;SDS011;57506;50.092;15.804;2023-05-07T03:25:31;9.17;;;5.57;;
70026;SDS011;57506;50.092;15.804;2023-05-07T03:27:57;10.90;;;6.32;;
70026;SDS011;57506;50.092;15.804;2023-05-07T03:30:23;9.63;;;6.23;;
70026;SDS011;57506;50.092;15.804;2023-05-07T03:32:48;9.85;;;5.68;;
70026;SDS011;57506;50.092;15.804;2023-05-07T03:35:14;11.73;;;5.93;;
70026;SDS011;57506;50.092;15.804;2023-05-07T03:37:40;10.57;;;6.40;;
70026;SDS011;57506;50.092;15.804;2023-05-07T03:40:06;10.47;;;5.80;;
70026;SDS011;57506;50.092;15.804;2023-05-07T03:42:32;11.80;;;6.18;;
70026;SDS011;57506;50.092;15.804;2023-05-07T03:44:58;9.90;;;5.57;;
70026;SDS011;57506;50.092;15.804;2023-05-07T03:47:23;10.67;;;6.00;;
70026;SDS011;57506;50.092;15.804;2023-05-07T03:49:49;10.93;;;6.13;;
70026;SDS011;57506;50.092;15.804;2023-05-07T03:52:16;10.52;;;6.40;;
70026;SDS011;57506;50.092;15.804;2023-05-07T03:54:47;10.00;;;5.97;;
70026;SDS011;57506;50.092;15.804;2023-05-07T03:57:13;10.40;;;6.38;;
70026;SDS011;57506;50.092;15.804;2023-05-07T03:59:38;8.83;;;5.27;;
70026;SDS011;57506;50.092;15.804;2023-05-07T04:02:04;10.98;;;5.72;;
70026;SDS011;57506;50.092;15.804;2023-05-07T04:04:30;11.50;;;6.17;;
70026;SDS011;57506;50.092;15.804;2023-05-07T04:06:57;10.15;;;6.15;;
70026;SDS011;57506;50.092;15.804;2023-05-07T04:09:24;10.73;;;6.30;;
70026;SDS011;57506;50.092;15.804;2023-05-07T04:11:50;10.05;;;5.97;;
70026;SDS011;57506;50.092;15.804;2023-05-07T04:14:16;9.52;;;5.35;;
70026;SDS011;57506;50.092;15.804;2023-05-07T04:16:41;12.50;;;6.47;;
70026;SDS011;57506;50.092;15.804;2023-05-07T04:19:07;10.85;;;6.50;;
70026;SDS011;57506;50.092;15.804;2023-05-07T04:21:32;11.57;;;6.33;;
70026;SDS011;57506;50.092;15.804;2023-05-07T04:23:58;10.37;;;6.53;;
70026;SDS011;57506;50.092;15.804;2023-05-07T04:26:23;11.88;;;6.88;;
70026;SDS011;57506;50.092;15.804;2023-05-07T04:28:49;10.30;;;6.00;;
70026;SDS011;57506;50.092;15.804;2023-05-07T04:31:15;10.67;;;6.30;;
70026;SDS011;57506;50.092;15.804;2023-05-07T04:33:40;10.25;;;5.90;;
70026;SDS011;57506;50.092;15.804;2023-05-07T04:36:06;10.53;;;5.87;;
70026;SDS011;57506;50.092;15.804;2023-05-07T04:38:32;12.30;;;6.57;;
70026;SDS011;57506;50.092;15.804;2023-05-07T04:41:04;10.02;;;5.90;;
70026;SDS011;57506;50.092;15.804;2023-05-07T04:43:31;10.93;;;6.00;;
70026;SDS011;57506;50.092;15.804;2023-05-07T04:45:57;9.57;;;5.53;;
70026;SDS011;57506;50.092;15.804;2023-05-07T04:48:23;9.88;;;6.07;;
70026;SDS011;57506;50.092;15.804;2023-05-07T04:50:49;10.47;;;5.90;;
70026;SDS011;57506;50.092;15.804;2023-05-07T04:53:15;13.17;;;6.73;;
70026;SDS011;57506;50.092;15.804;2023-05-07T04:55:41;10.15;;;5.93;;
70026;SDS011;57506;50.092;15.804;2023-05-07T04:58:07;11.10;;;6.15;;
70026;SDS011;57506;50.092;15.804;2023-05-07T05:00:33;10.65;;;5.72;;
70026;SDS011;57506;50.092;15.804;2023-05-07T05:02:59;10.33;;;5.80;;
70026;SDS011;57506;50.092;15.804;2023-05-07T05:05:24;9.70;;;5.72;;
70026;SDS011;57506;50.092;15.804;2023-05-07T05:07:50;8.43;;;5.00;;
70026;SDS011;57506;50.092;15.804;2023-05-07T05:10:16;9.55;;;5.38;;
70026;SDS011;57506;50.092;15.804;2023-05-07T05:12:42;9.63;;;5.45;;
70026;SDS011;57506;50.092;15.804;2023-05-07T05:15:08;9.20;;;5.40;;
70026;SDS011;57506;50.092;15.804;2023-05-07T05:17:35;9.07;;;5.07;;
70026;SDS011;57506;50.092;15.804;2023-05-07T05:20:01;7.53;;;4.30;;
70026;SDS011;57506;50.092;15.804;2023-05-07T05:22:27;8.07;;;4.73;;
70026;SDS011;57506;50.092;15.804;2023-05-07T05:24:54;8.57;;;5.13;;
70026;SDS011;57506;50.092;15.804;2023-05-07T05:27:20;7.10;;;4.20;;
70026;SDS011;57506;50.092;15.804;2023-05-07T05:29:45;8.60;;;4.25;;
70026;SDS011;57506;50.092;15.804;2023-05-07T05:32:11;6.97;;;4.10;;
70026;SDS011;57506;50.092;15.804;2023-05-07T05:34:36;7.13;;;4.30;;
70026;SDS011;57506;50.092;15.804;2023-05-07T05:37:02;7.93;;;4.45;;
70026;SDS011;57506;50.092;15.804;2023-05-07T05:39:28;6.87;;;3.87;;
70026;SDS011;57506;50.092;15.804;2023-05-07T05:41:53;6.93;;;4.23;;
70026;SDS011;57506;50.092;15.804;2023-05-07T05:44:19;6.40;;;3.78;;
70026;SDS011;57506;50.092;15.804;2023-05-07T05:46:44;7.00;;;4.07;;
70026;SDS011;57506;50.092;15.804;2023-05-07T05:49:10;6.35;;;3.65;;
70026;SDS011;57506;50.092;15.804;2023-05-07T05:51:36;6.97;;;3.80;;
70026;SDS011;57506;50.092;15.804;2023-05-07T05:54:01;6.73;;;3.60;;
70026;SDS011;57506;50.092;15.804;2023-05-07T05:56:27;7.00;;;3.60;;
70026;SDS011;57506;50.092;15.804;2023-05-07T05:58:52;7.07;;;4.10;;
70026;SDS011;57506;50.092;15.804;2023-05-07T06:01:18;5.57;;;3.25;;
70026;SDS011;57506;50.092;15.804;2023-05-07T06:03:44;7.20;;;4.07;;
70026;SDS011;57506;50.092;15.804;2023-05-07T06:06:09;6.82;;;4.20;;
70026;SDS011;57506;50.092;15.804;2023-05-07T06:08:35;6.03;;;3.23;;
70026;SDS011;57506;50.092;15.804;2023-05-07T06:11:01;5.82;;;3.47;;
70026;SDS011;57506;50.092;15.804;2023-05-07T06:13:27;6.00;;;3.58;;
70026;SDS011;57506;50.092;15.804;2023-05-07T06:15:53;6.23;;;3.53;;
70026;SDS011;57506;50.092;15.804;2023-05-07T06:18:18;6.23;;;3.40;;
70026;SDS011;57506;50.092;15.804;2023-05-07T06:20:44;5.97;;;3.60;;
70026;SDS011;57506;50.092;15.804;2023-05-07T06:23:10;6.83;;;3.60;;
70026;SDS011;57506;50.092;15.804;2023-05-07T06:25:36;7.40;;;3.65;;
70026;SDS011;57506;50.092;15.804;2023-05-07T06:28:02;5.70;;;3.10;;
70026;SDS011;57506;50.092;15.804;2023-05-07T06:30:27;5.17;;;2.73;;
70026;SDS011;57506;50.092;15.804;2023-05-07T06:32:53;5.70;;;3.20;;
70026;SDS011;57506;50.092;15.804;2023-05-07T06:35:18;4.70;;;2.60;;
70026;SDS011;57506;50.092;15.804;2023-05-07T06:37:44;5.50;;;2.70;;
70026;SDS011;57506;50.092;15.804;2023-05-07T06:40:10;5.80;;;2.97;;
70026;SDS011;57506;50.092;15.804;2023-05-07T06:42:36;5.35;;;2.85;;
70026;SDS011;57506;50.092;15.804;2023-05-07T06:45:02;5.60;;;2.75;;
70026;SDS011;57506;50.092;15.804;2023-05-07T06:47:28;4.47;;;2.37;;
70026;SDS011;57506;50.092;15.804;2023-05-07T06:49:53;4.68;;;2.50;;
70026;SDS011;57506;50.092;15.804;2023-05-07T06:52:19;4.67;;;2.50;;
70026;SDS011;57506;50.092;15.804;2023-05-07T06:54:44;5.00;;;2.65;;
70026;SDS011;57506;50.092;15.804;2023-05-07T06:57:10;4.80;;;2.27;;
70026;SDS011;57506;50.092;15.804;2023-05-07T06:59:36;5.67;;;2.50;;
70026;SDS011;57506;50.092;15.804;2023-05-07T07:02:01;4.85;;;2.20;;
70026;SDS011;57506;50.092;15.804;2023-05-07T07:04:27;5.93;;;3.00;;
70026;SDS011;57506;50.092;15.804;2023-05-07T07:06:53;6.10;;;2.75;;
70026;SDS011;57506;50.092;15.804;2023-05-07T07:09:19;4.75;;;2.70;;
70026;SDS011;57506;50.092;15.804;2023-05-07T07:11:44;4.70;;;2.30;;
70026;SDS011;57506;50.092;15.804;2023-05-07T07:14:10;5.75;;;2.60;;
70026;SDS011;57506;50.092;15.804;2023-05-07T07:16:36;4.93;;;2.57;;
70026;SDS011;57506;50.092;15.804;2023-05-07T07:19:01;5.47;;;2.90;;
70026;SDS011;57506;50.092;15.804;2023-05-07T07:21:27;5.65;;;2.90;;
70026;SDS011;57506;50.092;15.804;2023-05-07T07:23:53;5.80;;;3.30;;
70026;SDS011;57506;50.092;15.804;2023-05-07T07:26:18;6.32;;;3.47;;
70026;SDS011;57506;50.092;15.804;2023-05-07T07:28:45;5.97;;;3.47;;
70026;SDS011;57506;50.092;15.804;2023-05-07T07:31:11;7.23;;;3.33;;
70026;SDS011;57506;50.092;15.804;2023-05-07T07:33:38;6.22;;;3.22;;
70026;SDS011;57506;50.092;15.804;2023-05-07T07:36:04;5.05;;;3.00;;
70026;SDS011;57506;50.092;15.804;2023-05-07T07:38:31;5.85;;;3.25;;
70026;SDS011;57506;50.092;15.804;2023-05-07T07:40:56;5.50;;;3.10;;
70026;SDS011;57506;50.092;15.804;2023-05-07T07:43:22;5.20;;;2.73;;
70026;SDS011;57506;50.092;15.804;2023-05-07T07:45:47;5.80;;;3.10;;
70026;SDS011;57506;50.092;15.804;2023-05-07T07:48:13;5.47;;;2.93;;
70026;SDS011;57506;50.092;15.804;2023-05-07T07:50:39;5.57;;;3.08;;
70026;SDS011;57506;50.092;15.804;2023-05-07T07:53:04;5.50;;;2.90;;
70026;SDS011;57506;50.092;15.804;2023-05-07T07:55:30;9.40;;;4.32;;
70026;SDS011;57506;50.092;15.804;2023-05-07T07:57:57;5.60;;;2.80;;
70026;SDS011;57506;50.092;15.804;2023-05-07T08:00:22;4.18;;;2.10;;
70026;SDS011;57506;50.092;15.804;2023-05-07T08:02:48;5.27;;;2.23;;
70026;SDS011;57506;50.092;15.804;2023-05-07T08:05:13;6.70;;;3.72;;
70026;SDS011;57506;50.092;15.804;2023-05-07T08:07:40;6.00;;;2.60;;
70026;SDS011;57506;50.092;15.804;2023-05-07T08:10:06;4.60;;;2.50;;
70026;SDS011;57506;50.092;15.804;2023-05-07T08:12:32;5.50;;;3.15;;
70026;SDS011;57506;50.092;15.804;2023-05-07T08:14:57;5.60;;;3.23;;
70026;SDS011;57506;50.092;15.804;2023-05-07T08:17:23;5.00;;;2.60;;
70026;SDS011;57506;50.092;15.804;2023-05-07T08:19:49;4.97;;;2.70;;
70026;SDS011;57506;50.092;15.804;2023-05-07T08:22:14;4.77;;;2.67;;
70026;SDS011;57506;50.092;15.804;2023-05-07T08:24:40;5.78;;;3.13;;
70026;SDS011;57506;50.092;15.804;2023-05-07T08:27:06;5.20;;;2.90;;
70026;SDS011;57506;50.092;15.804;2023-05-07T08:29:31;6.33;;;3.13;;
70026;SDS011;57506;50.092;15.804;2023-05-07T08:31:57;6.30;;;3.10;;
70026;SDS011;57506;50.092;15.804;2023-05-07T08:34:22;5.63;;;3.30;;
70026;SDS011;57506;50.092;15.804;2023-05-07T08:36:48;5.07;;;3.20;;
70026;SDS011;57506;50.092;15.804;2023-05-07T08:39:16;5.90;;;3.00;;
70026;SDS011;57506;50.092;15.804;2023-05-07T08:41:45;5.30;;;3.00;;
70026;SDS011;57506;50.092;15.804;2023-05-07T08:44:14;5.35;;;3.35;;
70026;SDS011;57506;50.092;15.804;2023-05-07T08:46:42;6.07;;;3.10;;
70026;SDS011;57506;50.092;15.804;2023-05-07T08:49:13;5.10;;;3.20;;
70026;SDS011;57506;50.092;15.804;2023-05-07T08:51:38;6.40;;;3.90;;
70026;SDS011;57506;50.092;15.804;2023-05-07T08:54:04;4.85;;;2.60;;
70026;SDS011;57506;50.092;15.804;2023-05-07T08:56:31;6.55;;;4.10;;
70026;SDS011;57506;50.092;15.804;2023-05-07T08:58:57;8.90;;;5.10;;
70026;SDS011;57506;50.092;15.804;2023-05-07T09:01:23;6.13;;;3.78;;
70026;SDS011;57506;50.092;15.804;2023-05-07T09:03:50;6.07;;;4.10;;
70026;SDS011;57506;50.092;15.804;2023-05-07T09:06:18;5.97;;;3.78;;
70026;SDS011;57506;50.092;15.804;2023-05-07T09:08:50;6.00;;;3.63;;
70026;SDS011;57506;50.092;15.804;2023-05-07T09:11:22;5.95;;;3.40;;
70026;SDS011;57506;50.092;15.804;2023-05-07T09:13:49;6.85;;;4.30;;
70026;SDS011;57506;50.092;15.804;2023-05-07T09:16:19;7.10;;;4.57;;
70026;SDS011;57506;50.092;15.804;2023-05-07T09:18:45;6.87;;;4.60;;
70026;SDS011;57506;50.092;15.804;2023-05-07T09:21:16;6.13;;;4.25;;
70026;SDS011;57506;50.092;15.804;2023-05-07T09:23:42;7.70;;;4.40;;
70026;SDS011;57506;50.092;15.804;2023-05-07T09:26:14;6.27;;;3.97;;
70026;SDS011;57506;50.092;15.804;2023-05-07T09:28:43;6.05;;;3.80;;
70026;SDS011;57506;50.092;15.804;2023-05-07T09:31:09;6.28;;;3.65;;
70026;SDS011;57506;50.092;15.804;2023-05-07T09:33:36;6.50;;;3.75;;
70026;SDS011;57506;50.092;15.804;2023-05-07T09:36:05;6.45;;;3.83;;
70026;SDS011;57506;50.092;15.804;2023-05-07T09:38:33;6.63;;;4.10;;
70026;SDS011;57506;50.092;15.804;2023-05-07T09:41:03;5.85;;;3.80;;
70026;SDS011;57506;50.092;15.804;2023-05-07T09:43:36;5.95;;;3.67;;
70026;SDS011;57506;50.092;15.804;2023-05-07T09:46:05;6.60;;;3.88;;
70026;SDS011;57506;50.092;15.804;2023-05-07T09:48:31;6.75;;;3.50;;
70026;SDS011;57506;50.092;15.804;2023-05-07T09:51:01;5.33;;;3.10;;
70026;SDS011;57506;50.092;15.804;2023-05-07T09:53:29;4.55;;;2.58;;
70026;SDS011;57506;50.092;15.804;2023-05-07T09:55:56;5.10;;;3.25;;
70026;SDS011;57506;50.092;15.804;2023-05-07T09:58:23;5.68;;;3.53;;
70026;SDS011;57506;50.092;15.804;2023-05-07T10:00:51;6.00;;;3.72;;
70026;SDS011;57506;50.092;15.804;2023-05-07T10:03:17;7.30;;;4.20;;
70026;SDS011;57506;50.092;15.804;2023-05-07T10:05:44;5.78;;;3.70;;
70026;SDS011;57506;50.092;15.804;2023-05-07T10:08:12;6.38;;;3.60;;
70026;SDS011;57506;50.092;15.804;2023-05-07T10:10:39;5.50;;;3.70;;
70026;SDS011;57506;50.092;15.804;2023-05-07T10:13:06;6.65;;;4.18;;
70026;SDS011;57506;50.092;15.804;2023-05-07T10:15:35;6.17;;;3.70;;
70026;SDS011;57506;50.092;15.804;2023-05-07T10:18:02;7.43;;;4.22;;
70026;SDS011;57506;50.092;15.804;2023-05-07T10:20:31;6.13;;;4.10;;
70026;SDS011;57506;50.092;15.804;2023-05-07T10:22:58;6.95;;;4.28;;
70026;SDS011;57506;50.092;15.804;2023-05-07T10:25:28;6.20;;;3.90;;
70026;SDS011;57506;50.092;15.804;2023-05-07T10:27:55;5.77;;;4.00;;
70026;SDS011;57506;50.092;15.804;2023-05-07T10:33:00;7.35;;;5.18;;
70026;SDS011;57506;50.092;15.804;2023-05-07T10:35:31;7.22;;;4.50;;
70026;SDS011;57506;50.092;15.804;2023-05-07T10:38:03;7.50;;;5.05;;
70026;SDS011;57506;50.092;15.804;2023-05-07T10:40:30;8.73;;;4.90;;
70026;SDS011;57506;50.092;15.804;2023-05-07T10:42:57;6.88;;;4.90;;
70026;SDS011;57506;50.092;15.804;2023-05-07T10:45:27;7.40;;;5.13;;
70026;SDS011;57506;50.092;15.804;2023-05-07T10:48:12;8.20;;;5.80;;
70026;SDS011;57506;50.092;15.804;2023-05-07T10:50:39;8.48;;;5.53;;
70026;SDS011;57506;50.092;15.804;2023-05-07T10:55:44;9.18;;;6.25;;
70026;SDS011;57506;50.092;15.804;2023-05-07T10:58:29;9.73;;;6.15;;
70026;SDS011;57506;50.092;15.804;2023-05-07T11:00:57;9.30;;;6.55;;
70026;SDS011;57506;50.092;15.804;2023-05-07T11:03:24;8.90;;;6.18;;
70026;SDS011;57506;50.092;15.804;2023-05-07T11:06:26;10.73;;;6.23;;
70026;SDS011;57506;50.092;15.804;2023-05-07T11:17:07;9.15;;;6.53;;
70026;SDS011;57506;50.092;15.804;2023-05-07T11:19:53;8.47;;;5.83;;
70026;SDS011;57506;50.092;15.804;2023-05-07T11:25:04;9.63;;;6.10;;
70026;SDS011;57506;50.092;15.804;2023-05-07T11:27:31;9.45;;;6.50;;
70026;SDS011;57506;50.092;15.804;2023-05-07T11:29:58;9.88;;;6.60;;
70026;SDS011;57506;50.092;15.804;2023-05-07T11:32:27;13.50;;;7.50;;
70026;SDS011;57506;50.092;15.804;2023-05-07T11:34:54;10.05;;;6.35;;
70026;SDS011;57506;50.092;15.804;2023-05-07T11:37:22;9.85;;;6.72;;
70026;SDS011;57506;50.092;15.804;2023-05-07T11:39:48;9.27;;;6.80;;
70026;SDS011;57506;50.092;15.804;2023-05-07T11:42:29;10.73;;;6.90;;
70026;SDS011;57506;50.092;15.804;2023-05-07T11:44:54;10.40;;;7.27;;
70026;SDS011;57506;50.092;15.804;2023-05-07T11:47:20;9.30;;;6.95;;
70026;SDS011;57506;50.092;15.804;2023-05-07T11:49:47;13.98;;;7.05;;
70026;SDS011;57506;50.092;15.804;2023-05-07T11:52:17;9.70;;;7.40;;
70026;SDS011;57506;50.092;15.804;2023-05-07T11:55:06;11.57;;;7.82;;
70026;SDS011;57506;50.092;15.804;2023-05-07T11:57:30;9.63;;;7.32;;
70026;SDS011;57506;50.092;15.804;2023-05-07T11:59:58;10.05;;;6.95;;
70026;SDS011;57506;50.092;15.804;2023-05-07T12:02:29;10.95;;;7.68;;
70026;SDS011;57506;50.092;15.804;2023-05-07T12:04:54;10.33;;;6.83;;
70026;SDS011;57506;50.092;15.804;2023-05-07T12:07:20;9.63;;;6.82;;
70026;SDS011;57506;50.092;15.804;2023-05-07T12:09:46;10.83;;;7.43;;
70026;SDS011;57506;50.092;15.804;2023-05-07T12:12:13;9.65;;;6.63;;
70026;SDS011;57506;50.092;15.804;2023-05-07T12:14:43;9.00;;;6.43;;
70026;SDS011;57506;50.092;15.804;2023-05-07T12:17:11;8.75;;;6.13;;
70026;SDS011;57506;50.092;15.804;2023-05-07T12:19:38;9.13;;;6.15;;
70026;SDS011;57506;50.092;15.804;2023-05-07T12:22:11;9.57;;;6.40;;
70026;SDS011;57506;50.092;15.804;2023-05-07T12:27:16;8.35;;;5.97;;
70026;SDS011;57506;50.092;15.804;2023-05-07T12:29:49;8.25;;;5.88;;
70026;SDS011;57506;50.092;15.804;2023-05-07T12:32:16;9.43;;;6.35;;
70026;SDS011;57506;50.092;15.804;2023-05-07T12:34:44;10.40;;;5.67;;
70026;SDS011;57506;50.092;15.804;2023-05-07T12:37:24;7.22;;;4.55;;
70026;SDS011;57506;50.092;15.804;2023-05-07T12:40:03;7.20;;;3.97;;
70026;SDS011;57506;50.092;15.804;2023-05-07T12:42:37;6.28;;;4.43;;
70026;SDS011;57506;50.092;15.804;2023-05-07T12:45:11;7.07;;;4.82;;
70026;SDS011;57506;50.092;15.804;2023-05-07T12:47:37;7.87;;;5.00;;
70026;SDS011;57506;50.092;15.804;2023-05-07T12:50:06;7.60;;;4.20;;
70026;SDS011;57506;50.092;15.804;2023-05-07T12:52:32;8.43;;;4.43;;
70026;SDS011;57506;50.092;15.804;2023-05-07T12:55:04;6.72;;;4.60;;
70026;SDS011;57506;50.092;15.804;2023-05-07T12:57:43;8.15;;;4.63;;
70026;SDS011;57506;50.092;15.804;2023-05-07T13:00:18;6.20;;;3.90;;
70026;SDS011;57506;50.092;15.804;2023-05-07T13:03:00;6.13;;;3.30;;
70026;SDS011;57506;50.092;15.804;2023-05-07T13:05:25;7.35;;;3.47;;
70026;SDS011;57506;50.092;15.804;2023-05-07T13:07:54;6.03;;;3.50;;
70026;SDS011;57506;50.092;15.804;2023-05-07T13:10:24;6.18;;;4.10;;
70026;SDS011;57506;50.092;15.804;2023-05-07T13:12:50;6.70;;;4.03;;
70026;SDS011;57506;50.092;15.804;2023-05-07T13:15:18;6.00;;;3.67;;
70026;SDS011;57506;50.092;15.804;2023-05-07T13:17:44;6.25;;;3.97;;
70026;SDS011;57506;50.092;15.804;2023-05-07T13:20:10;6.60;;;3.88;;
70026;SDS011;57506;50.092;15.804;2023-05-07T13:22:37;6.47;;;3.23;;
70026;SDS011;57506;50.092;15.804;2023-05-07T13:25:03;5.72;;;3.38;;
70026;SDS011;57506;50.092;15.804;2023-05-07T13:27:29;7.25;;;3.85;;
70026;SDS011;57506;50.092;15.804;2023-05-07T13:29:56;6.90;;;4.00;;
70026;SDS011;57506;50.092;15.804;2023-05-07T13:32:24;5.45;;;3.20;;
70026;SDS011;57506;50.092;15.804;2023-05-07T13:34:54;6.60;;;3.03;;
70026;SDS011;57506;50.092;15.804;2023-05-07T13:37:20;6.18;;;3.33;;
70026;SDS011;57506;50.092;15.804;2023-05-07T13:39:46;6.10;;;3.42;;
70026;SDS011;57506;50.092;15.804;2023-05-07T13:42:11;5.93;;;3.20;;
70026;SDS011;57506;50.092;15.804;2023-05-07T13:44:37;6.97;;;2.93;;
70026;SDS011;57506;50.092;15.804;2023-05-07T13:47:02;5.63;;;3.22;;
70026;SDS011;57506;50.092;15.804;2023-05-07T13:49:28;6.00;;;3.17;;
70026;SDS011;57506;50.092;15.804;2023-05-07T13:51:54;4.80;;;2.80;;
70026;SDS011;57506;50.092;15.804;2023-05-07T13:54:20;5.10;;;2.70;;
70026;SDS011;57506;50.092;15.804;2023-05-07T13:56:46;5.37;;;2.37;;
70026;SDS011;57506;50.092;15.804;2023-05-07T13:59:11;5.40;;;2.58;;
70026;SDS011;57506;50.092;15.804;2023-05-07T14:01:39;5.50;;;2.43;;
70026;SDS011;57506;50.092;15.804;2023-05-07T14:04:04;4.57;;;2.33;;
70026;SDS011;57506;50.092;15.804;2023-05-07T14:06:30;4.93;;;2.33;;
70026;SDS011;57506;50.092;15.804;2023-05-07T14:08:58;4.13;;;2.38;;
70026;SDS011;57506;50.092;15.804;2023-05-07T14:11:23;5.17;;;2.83;;
70026;SDS011;57506;50.092;15.804;2023-05-07T14:13:49;4.75;;;2.55;;
70026;SDS011;57506;50.092;15.804;2023-05-07T14:16:14;4.80;;;2.50;;
70026;SDS011;57506;50.092;15.804;2023-05-07T14:18:40;5.70;;;2.60;;
70026;SDS011;57506;50.092;15.804;2023-05-07T14:21:06;4.50;;;2.60;;
70026;SDS011;57506;50.092;15.804;2023-05-07T14:23:32;4.40;;;2.30;;
70026;SDS011;57506;50.092;15.804;2023-05-07T14:25:58;5.40;;;2.33;;
70026;SDS011;57506;50.092;15.804;2023-05-07T14:28:26;4.47;;;2.63;;
70026;SDS011;57506;50.092;15.804;2023-05-07T14:30:51;4.47;;;2.40;;
70026;SDS011;57506;50.092;15.804;2023-05-07T14:33:17;4.60;;;2.40;;
70026;SDS011;57506;50.092;15.804;2023-05-07T14:35:43;4.25;;;2.30;;
70026;SDS011;57506;50.092;15.804;2023-05-07T14:38:13;4.78;;;2.10;;
70026;SDS011;57506;50.092;15.804;2023-05-07T14:40:39;3.90;;;1.95;;
70026;SDS011;57506;50.092;15.804;2023-05-07T14:43:05;5.63;;;2.30;;
70026;SDS011;57506;50.092;15.804;2023-05-07T14:45:30;4.50;;;2.20;;